AirNav   Jet Aviation Boston
 
 803 users online  

2Y4 Rockwell City Municipal Airport
Rockwell City, Iowa, USA

GOING TO ROCKWELL CITY?


FAA INFORMATION EFFECTIVE 24 MAY 2018

Location

FAA Identifier: 2Y4
Lat/Long: 42-23-16.1600N / 094-37-08.0500W
42-23.269333N / 094-37.134167W
42.3878222 / -94.6189028
(estimated)
Elevation: 1215.9 ft. / 370.6 m (surveyed)
Variation: 05E (1985)
From city: 1 mile SE of ROCKWELL CITY, IA
Time zone: UTC -5 (UTC -6 during Standard Time)
Zip code: 50579

Airport Operations

Airport use: Open to the public
Activation date: 10/1967
Control tower: no
ARTCC: MINNEAPOLIS CENTER
FSS: FORT DODGE FLIGHT SERVICE STATION
NOTAMs facility: FOD (NOTAM-D service available)
Attendance: UNATNDD
Wind indicator: lighted
Segmented circle: no
Lights: DUSK-DAWN. FOR MIRL RY 12/30 KEY 122.8 3 TIMES HIGH INTST ONLY.

Airport Communications

CTAF/UNICOM: 122.8

Nearby radio navigation aids

VOR radial/distance  VOR name  Freq  Var
FODr220/19.6FORT DODGE VORTAC113.5007E

 
NDB name  Hdg/Dist  Freq  Var  ID
SAC CITY084/16.135604ESKI ... -.- ..
POCAHONTAS174/21.642802EPOH .--. --- ....
JEFFERSON328/25.639103EEFW . ..-. .--
WEBSTER CITY261/33.432303EEBS . -... ...

Airport Services

Fuel available: 100LL
FOR FUEL CALL POLICE AT (712) 297-7583.
Parking: tiedowns
Airframe service: NONE
Powerplant service: NONE
Bottled oxygen: NONE
Bulk oxygen: NONE

Runway Information

Runway 12/30

Dimensions: 3503 x 60 ft. / 1068 x 18 m
Surface: concrete, in fair condition
Runway edge lights: medium intensity
RUNWAY 12  RUNWAY 30
Latitude: 42-23.414333N42-23.124167N
Longitude: 094-37.470333W094-36.798000W
Elevation: 1215.9 ft.1214.9 ft.
Traffic pattern: leftleft
Runway heading: 115 magnetic, 120 true295 magnetic, 300 true
Displaced threshold: 1205 ft.no
Declared distances: TORA:3500 TODA:3500 ASDA:3500 LDA:2300TORA:3500 TODA:3500 ASDA:3500 LDA:3500
Markings: basic, in fair conditionbasic, in fair condition
Obstructions: 165 ft. bldg, 2300 ft. from runway, 40 ft. left of centerline, 12:1 slope to clear
APCH RATIO 21:1 FM DSPLCD THR.
64 ft. tree, 602 ft. from runway, 122 ft. left of centerline, 6:1 slope to clear

Airport Ownership and Management from official FAA records

Ownership: Publicly-owned
Owner: ROCKWELL CITY
335 MAIN
ROCKWELL CITY, IA 50579
Phone 712-297-7041
Manager: PHILIP HAMMEN
335 MAIN
ROCKWELL CITY, IA 50579
Phone 712-297-7041

Airport Operational Statistics

Aircraft based on the field: 10
Single engine airplanes: 10
    
Aircraft operations: avg 57/week *
57% transient general aviation
43% local general aviation
* for 12-month period ending 17 August 2017

Additional Remarks

RADIO CTLD ACFT INVOF ARPT.

Instrument Procedures

There are no published instrument procedures at 2Y4.

Some nearby airports with instrument procedures:

KSKI - Sac City Municipal Airport (16 nm W)
KFOD - Fort Dodge Regional Airport (21 nm NE)
KPOH - Pocahontas Municipal Airport (21 nm N)
KCIN - Arthur N Neu Airport (22 nm S)
KEFW - Jefferson Municipal Airport (26 nm SE)
 
Loc | Ops | Rwys | IFR | FBO | Links
Com | Nav | Svcs | Stats | Notes

AirNav Hotels Sweepstakes
 
Area around 2Y4 (Rockwell City Municipal Airport)
 
Road maps at: MapQuest Bing Google
 
Aerial photo
No photo
 
Sectional chart

 
Airport distance calculator
Flying to Rockwell City Municipal Airport? Find the distance to fly.

From to 2Y4

Sunrise and sunset
Times for 24-May-2018
 Local
(UTC-5)
 Zulu
(UTC)
Morning civil twilight05:1710:17
Sunrise05:5010:50
Sunset20:4101:41
Evening civil twilight21:1402:14

Current date and time
Zulu (UTC)  25-May-2018 03:07:58
Local (UTC-5)  24-May-2018 22:07:58
 
METAR
KFOD 
22nm NE 
250256Z AUTO 19006KT 10SM BKN060 25/18 A2995 RMK AO2 SLP158 T02500178 53008
KCIN 
22nm S 
250255Z AUTO 17007KT 10SM BKN060 25/18 A2994 RMK AO2
KSLB 
29nm NW 
250255Z AUTO 17012KT 10SM CLR 24/17 A2992 RMK AO2
KEBS 
33nm E 
250255Z AUTO 18011KT 10SM CLR 25/18 A2993 RMK AO2
KPRO 
39nm SE 
250255Z AUTO 16009KT 10SM CLR 25/15 A2994 RMK AO2 T02530150
KBNW 
41nm SE 
250255Z AUTO 18008KT 10SM CLR 26/17 A2995 RMK AO2
KDNS 
42nm SW 
250255Z AUTO 17009G16KT 10SM CLR 26/18 A2994 RMK AO2
KADU 
43nm S 
250255Z AUTO 18007KT 10SM CLR 24/20 A2995 RMK AO2
KCAV 
43nm NE 
250255Z AUTO 18009KT 10SM CLR 24/18 A2995 RMK AO2 PWINO
KAXA 
44nm N 
250255Z AUTO 05006KT 10SM FEW049 OVC060 21/16 A2994 RMK AO2 P0002
TAF
KFOD 
22nm NE 
241722Z 2418/2518 20012G19KT P6SM FEW040 SCT150 FM250000 18008KT P6SM SCT100 FM251500 21008KT P6SM SCT040
NOTAMs
Click for the latest NOTAMs
NOTAMs are issued by the DoD/FAA and will open in a separate window not controlled by AirNav.

 

 
 

FBO, Fuel Providers, and Aircraft Ground Support

  
 Business Name 
 
 Contact 
 
 Services / Description 
 
Fuel Prices
 
Comments
  
City of Rockwell City 712-297-7041
no information available

If you are affiliated with City of Rockwell City and would like to show here your services, contact info, web link, logo, and more, click here
100LL
AS $4.10 
 Updated 21-May-2018
 
   write
AS=Assisted/Self Service
Update Fuel Prices
 

Would you like to see your business listed on this page?

 If your business provides an interesting product or service to pilots, flight crews, aircraft, or users of the Rockwell City Municipal Airport, you should consider listing it here.  To start the listing process, click on the button below
 
Add a business
 

Other Pages about Rockwell City Municipal Airport

Page from the Iowa Airport Directory
 
Update a link
 
Copyright © AirNav, LLC. All rights reserved. Privacy Policy  Contact